createdAt,value
2023-01-31T00:01:27.752Z,99730.19
2023-01-31T00:03:56.510Z,99725.03
2023-01-31T00:06:29.311Z,99737.66
2023-01-31T00:08:57.359Z,99729.00
2023-01-31T00:11:25.865Z,99725.28
2023-01-31T00:13:53.318Z,99712.56
2023-01-31T00:16:20.754Z,99710.31
2023-01-31T00:18:47.971Z,99703.91
2023-01-31T00:21:18.321Z,99706.84
2023-01-31T00:23:45.984Z,99713.84
2023-01-31T00:26:24.125Z,99708.94
2023-01-31T00:28:53.008Z,99705.66
2023-01-31T00:31:21.711Z,99712.41
2023-01-31T00:33:49.510Z,99708.69
2023-01-31T00:36:18.742Z,99711.38
2023-01-31T00:38:48.895Z,99706.25
2023-01-31T00:41:15.936Z,99704.84
2023-01-31T00:43:42.652Z,99701.34
2023-01-31T00:46:09.553Z,99700.50
2023-01-31T00:48:36.330Z,99700.31
2023-01-31T00:51:03.200Z,99705.66
2023-01-31T00:53:30.283Z,99701.94
2023-01-31T00:56:04.318Z,99705.66
2023-01-31T00:58:31.040Z,99714.28
2023-01-31T01:01:06.201Z,99706.84
2023-01-31T01:03:33.047Z,99706.38
2023-01-31T01:05:59.799Z,99701.63
2023-01-31T01:08:26.757Z,99701.38
2023-01-31T01:10:55.364Z,99697.44
2023-01-31T01:13:22.226Z,99692.88
2023-01-31T01:15:49.030Z,99698.94
2023-01-31T01:18:15.895Z,99691.69
2023-01-31T01:20:42.676Z,99686.56
2023-01-31T01:23:09.525Z,99686.78
2023-01-31T01:25:44.453Z,99688.06
2023-01-31T01:28:11.198Z,99690.16
2023-01-31T01:30:39.092Z,99689.56
2023-01-31T01:33:05.767Z,99694.69
2023-01-31T01:35:33.043Z,99683.16
2023-01-31T01:37:59.829Z,99698.22
2023-01-31T01:40:26.595Z,99703.56
2023-01-31T01:42:53.254Z,99699.25
2023-01-31T01:45:21.318Z,99703.78
2023-01-31T01:47:52.671Z,99712.66
2023-01-31T01:50:35.145Z,99701.94
2023-01-31T01:53:10.900Z,99704.03
2023-01-31T01:55:45.462Z,99697.03
2023-01-31T01:58:18.197Z,99695.97
2023-01-31T02:00:47.040Z,99707.75
2023-01-31T02:03:14.761Z,99706.56
2023-01-31T02:05:41.476Z,99714.03
2023-01-31T02:08:09.980Z,99709.91
2023-01-31T02:10:49.706Z,99712.38
2023-01-31T02:13:17.523Z,99709.91
2023-01-31T02:15:44.520Z,99710.75
2023-01-31T02:18:12.838Z,99716.31
2023-01-31T02:21:19.676Z,99717.75
2023-01-31T02:24:11.396Z,99722.72
2023-01-31T02:26:56.297Z,99722.38
2023-01-31T02:29:41.654Z,99725.28
2023-01-31T02:32:14.404Z,99731.47
2023-01-31T02:34:53.104Z,99731.47
2023-01-31T02:37:32.696Z,99725.72
2023-01-31T02:40:24.164Z,99723.28
2023-01-31T02:43:13.380Z,99721.66
2023-01-31T02:45:49.400Z,99723.28
2023-01-31T02:48:26.953Z,99721.66
2023-01-31T02:51:23.059Z,99714.66
2023-01-31T02:53:56.075Z,99720.22
2023-01-31T02:56:29.414Z,99719.44
2023-01-31T02:59:05.941Z,99719.63
2023-01-31T03:01:38.567Z,99712.19
2023-01-31T03:04:11.117Z,99727.00
2023-01-31T03:06:37.825Z,99723.75
2023-01-31T03:09:31.566Z,99712.19
2023-01-31T03:12:13.731Z,99719.19
2023-01-31T03:14:57.156Z,99712.19
2023-01-31T03:17:34.323Z,99718.59
2023-01-31T03:20:15.822Z,99723.94
2023-01-31T03:22:54.485Z,99729.91
2023-01-31T03:25:25.053Z,99729.09
2023-01-31T03:27:57.640Z,99724.34
2023-01-31T03:30:32.975Z,99727.59
2023-01-31T03:33:06.071Z,99725.97
2023-01-31T03:35:36.965Z,99731.09
2023-01-31T03:38:25.546Z,99735.41
2023-01-31T03:41:03.000Z,99729.00
2023-01-31T03:43:56.398Z,99727.59
2023-01-31T03:46:29.732Z,99739.38
2023-01-31T03:48:59.827Z,99748.00
2023-01-31T03:51:31.524Z,99740.16
2023-01-31T03:54:07.039Z,99749.03
2023-01-31T03:56:46.970Z,99753.22
2023-01-31T03:59:18.533Z,99759.97
2023-01-31T04:01:48.812Z,99754.41
2023-01-31T04:04:23.471Z,99764.44
2023-01-31T04:06:50.703Z,99776.00
2023-01-31T04:09:17.531Z,99767.94
2023-01-31T04:11:48.574Z,99761.53
2023-01-31T04:14:16.672Z,99752.66
2023-01-31T04:16:44.077Z,99752.66
2023-01-31T04:19:11.004Z,99759.66
2023-01-31T04:21:37.715Z,99759.47
2023-01-31T04:24:04.832Z,99761.09
2023-01-31T04:26:32.151Z,99768.31
2023-01-31T04:28:58.949Z,99769.94
2023-01-31T04:31:25.842Z,99769.94
2023-01-31T04:33:52.644Z,99770.19
2023-01-31T04:36:19.437Z,99763.19
2023-01-31T04:38:46.393Z,99763.19
2023-01-31T04:41:13.108Z,99763.19
2023-01-31T04:43:39.781Z,99760.72
2023-01-31T04:46:06.571Z,99769.00
2023-01-31T04:48:33.907Z,99769.78
2023-01-31T04:51:00.974Z,99764.88
2023-01-31T04:53:27.745Z,99764.09
2023-01-31T04:55:55.217Z,99759.97
2023-01-31T04:58:22.533Z,99764.53
2023-01-31T05:00:49.547Z,99766.63
2023-01-31T05:03:16.633Z,99761.25
2023-01-31T05:05:43.452Z,99761.31
2023-01-31T05:08:10.332Z,99759.94
2023-01-31T05:10:37.265Z,99748.81
2023-01-31T05:13:04.083Z,99749.28
2023-01-31T05:15:31.495Z,99751.59
2023-01-31T05:18:02.858Z,99744.81
2023-01-31T05:20:38.325Z,99743.75
2023-01-31T05:23:05.246Z,99745.84
2023-01-31T05:25:32.471Z,99741.97
2023-01-31T05:27:59.234Z,99734.16
2023-01-31T05:30:26.414Z,99732.53
2023-01-31T05:32:53.451Z,99737.72
2023-01-31T05:35:20.633Z,99740.66
2023-01-31T05:37:48.092Z,99745.16
2023-01-31T05:40:16.925Z,99751.81
2023-01-31T05:42:44.322Z,99741.09
2023-01-31T05:45:12.240Z,99754.84
2023-01-31T05:47:39.384Z,99758.34
2023-01-31T05:50:06.714Z,99759.25
2023-01-31T05:52:33.519Z,99764.22
2023-01-31T05:55:00.428Z,99767.72
2023-01-31T05:57:27.200Z,99759.44
2023-01-31T05:59:53.936Z,99758.06
2023-01-31T06:02:20.723Z,99769.56
2023-01-31T06:04:47.589Z,99756.19
2023-01-31T06:07:14.352Z,99756.63
2023-01-31T06:09:41.886Z,99756.03
2023-01-31T06:12:14.679Z,99756.25
2023-01-31T06:14:41.495Z,99762.66
2023-01-31T06:17:08.361Z,99757.16
2023-01-31T06:19:35.098Z,99761.91
2023-01-31T06:22:01.938Z,99757.00
2023-01-31T06:24:28.663Z,99772.22
2023-01-31T06:26:55.345Z,99771.91
2023-01-31T06:29:22.159Z,99764.97
2023-01-31T06:31:49.032Z,99769.19
2023-01-31T06:34:18.636Z,99769.44
2023-01-31T06:36:45.347Z,99766.22
2023-01-31T06:39:15.525Z,99772.66
2023-01-31T06:41:42.366Z,99784.44
2023-01-31T06:44:09.169Z,99778.72
2023-01-31T06:46:36.485Z,99782.63
2023-01-31T06:49:03.308Z,99773.19
2023-01-31T06:51:30.627Z,99779.78
2023-01-31T06:53:57.402Z,99781.63
2023-01-31T06:56:24.178Z,99780.00
2023-01-31T06:58:50.943Z,99786.81
2023-01-31T07:01:17.878Z,99787.25
2023-01-31T07:03:44.789Z,99794.66
2023-01-31T07:06:11.926Z,99793.44
2023-01-31T07:08:38.711Z,99795.28
2023-01-31T07:11:06.635Z,99791.81
2023-01-31T07:13:33.769Z,99792.84
2023-01-31T07:16:00.970Z,99798.63
2023-01-31T07:18:27.914Z,99809.50
2023-01-31T07:20:54.918Z,99802.53
2023-01-31T07:23:21.771Z,99803.31
2023-01-31T07:25:48.522Z,99803.53
2023-01-31T07:28:15.333Z,99811.97
2023-01-31T07:30:43.741Z,99802.94
2023-01-31T07:33:11.362Z,99805.38
2023-01-31T07:35:38.092Z,99799.41
2023-01-31T07:38:04.865Z,99792.63
2023-01-31T07:40:32.082Z,99802.50
2023-01-31T07:42:59.763Z,99804.34
2023-01-31T07:45:27.301Z,99798.75
2023-01-31T07:47:57.697Z,99790.53
2023-01-31T07:50:24.429Z,99806.34
2023-01-31T07:52:51.361Z,99808.56
2023-01-31T07:55:18.735Z,99801.16
2023-01-31T07:57:46.345Z,99810.19
2023-01-31T08:00:32.150Z,99812.44
2023-01-31T08:03:17.612Z,99807.63
2023-01-31T08:05:47.908Z,99806.94
2023-01-31T08:08:14.753Z,99805.81
2023-01-31T08:10:41.523Z,99801.25
2023-01-31T08:13:08.562Z,99811.00
2023-01-31T08:15:35.394Z,99805.94
2023-01-31T08:18:05.080Z,99815.09
2023-01-31T08:20:33.080Z,99811.09
2023-01-31T08:22:59.963Z,99817.94
2023-01-31T08:25:29.279Z,99821.81
2023-01-31T08:28:00.408Z,99820.31
2023-01-31T08:30:28.160Z,99812.63
2023-01-31T08:32:56.149Z,99814.78
2023-01-31T08:35:23.090Z,99822.31
2023-01-31T08:37:50.030Z,99811.44
2023-01-31T08:40:17.107Z,99812.75
2023-01-31T08:42:43.908Z,99814.16
2023-01-31T08:45:10.781Z,99808.59
2023-01-31T08:47:38.707Z,99814.53
2023-01-31T08:50:13.156Z,99810.81
2023-01-31T08:52:54.000Z,99816.53
2023-01-31T08:55:22.101Z,99814.59
2023-01-31T08:57:59.419Z,99821.16
2023-01-31T09:00:26.692Z,99814.44
2023-01-31T09:02:58.757Z,99814.47
2023-01-31T09:05:27.339Z,99811.47
2023-01-31T09:07:54.233Z,99801.44
2023-01-31T09:10:22.284Z,99804.50
2023-01-31T09:12:49.001Z,99795.63
2023-01-31T09:15:15.885Z,99794.13
2023-01-31T09:17:43.524Z,99791.81
2023-01-31T09:20:10.922Z,99782.72
2023-01-31T09:22:38.282Z,99783.81
2023-01-31T09:25:05.686Z,99788.94
2023-01-31T09:27:32.531Z,99782.31
2023-01-31T09:29:59.251Z,99767.72
2023-01-31T09:32:26.023Z,99769.94
2023-01-31T09:34:52.840Z,99764.78
2023-01-31T09:37:19.619Z,99763.25
2023-01-31T09:39:46.325Z,99768.06
2023-01-31T09:42:43.519Z,99775.06
2023-01-31T09:45:16.847Z,99764.91
2023-01-31T09:47:48.210Z,99777.03
2023-01-31T09:50:14.898Z,99767.25
2023-01-31T09:52:41.807Z,99770.63
2023-01-31T09:55:20.105Z,99770.50
2023-01-31T09:57:59.129Z,99769.44
2023-01-31T10:00:33.944Z,99771.69
2023-01-31T10:03:22.891Z,99779.59
2023-01-31T10:06:12.526Z,99790.13
2023-01-31T10:08:58.624Z,99790.88
2023-01-31T10:11:36.491Z,99794.88
2023-01-31T10:14:22.183Z,99799.22
2023-01-31T10:17:03.330Z,99790.75
2023-01-31T10:19:55.239Z,99806.53
2023-01-31T10:22:36.138Z,99803.19
2023-01-31T10:25:30.851Z,99806.75
2023-01-31T10:28:03.748Z,99797.78
2023-01-31T10:30:56.055Z,99791.72
2023-01-31T10:33:38.378Z,99789.91
2023-01-31T10:36:18.797Z,99782.88
2023-01-31T10:38:58.342Z,99782.09
2023-01-31T10:41:41.073Z,99775.28
2023-01-31T10:44:33.815Z,99773.06
2023-01-31T10:47:00.725Z,99777.84
2023-01-31T10:49:29.172Z,99782.22
2023-01-31T10:52:08.687Z,99792.47
2023-01-31T10:55:13.102Z,99795.88
2023-01-31T10:57:39.947Z,99788.19
2023-01-31T11:00:12.698Z,99792.22
2023-01-31T11:02:39.490Z,99787.00
2023-01-31T11:05:06.505Z,99785.41
2023-01-31T11:07:34.381Z,99770.13
2023-01-31T11:10:21.814Z,99758.25
2023-01-31T11:12:57.657Z,99745.00
2023-01-31T11:15:28.505Z,99735.78
2023-01-31T11:18:00.844Z,99740.97
2023-01-31T11:20:31.552Z,99721.38
2023-01-31T11:23:01.218Z,99709.91
2023-01-31T11:25:31.232Z,99705.50
2023-01-31T11:28:03.365Z,99702.03
2023-01-31T11:30:32.778Z,99711.34
2023-01-31T11:32:59.629Z,99705.38
2023-01-31T11:35:35.910Z,99699.19
2023-01-31T11:38:11.847Z,99692.47
2023-01-31T11:40:40.811Z,99704.09
2023-01-31T11:43:13.744Z,99702.75
2023-01-31T11:45:45.394Z,99712.56
2023-01-31T11:48:13.057Z,99727.56
2023-01-31T11:50:45.876Z,99715.09
2023-01-31T11:53:29.183Z,99705.88
2023-01-31T11:56:00.586Z,99713.53
2023-01-31T11:58:39.815Z,99708.78
2023-01-31T12:01:13.300Z,99703.91
2023-01-31T12:04:01.419Z,99689.56
2023-01-31T12:06:40.533Z,99681.50
2023-01-31T12:09:25.801Z,99674.06
2023-01-31T12:11:57.013Z,99672.59
2023-01-31T12:14:25.087Z,99665.91
2023-01-31T12:16:56.136Z,99648.59
2023-01-31T12:19:51.808Z,99638.50
2023-01-31T12:22:41.789Z,99639.81
2023-01-31T12:25:30.328Z,99638.19
2023-01-31T12:28:23.133Z,99641.22
2023-01-31T12:31:09.361Z,99638.81
2023-01-31T12:34:01.439Z,99644.63
2023-01-31T12:36:42.722Z,99648.94
2023-01-31T12:39:38.773Z,99637.19
2023-01-31T12:42:25.090Z,99644.50
2023-01-31T12:45:19.214Z,99641.63
2023-01-31T12:47:56.845Z,99631.06
2023-01-31T12:50:28.597Z,99629.38
2023-01-31T12:53:26.071Z,99624.75
2023-01-31T12:56:30.415Z,99621.13
2023-01-31T12:59:17.046Z,99607.03
2023-01-31T13:01:56.526Z,99601.34
2023-01-31T13:04:31.080Z,99593.06
2023-01-31T13:07:03.452Z,99588.03
2023-01-31T13:09:35.771Z,99588.69
2023-01-31T13:12:13.307Z,99574.88
2023-01-31T13:14:48.452Z,99568.69
2023-01-31T13:17:22.731Z,99567.88
2023-01-31T13:19:55.722Z,99561.63
2023-01-31T13:22:49.357Z,99564.22
2023-01-31T13:25:24.344Z,99556.38
2023-01-31T13:27:59.199Z,99544.25
2023-01-31T13:30:45.195Z,99547.44
2023-01-31T13:33:37.120Z,99560.16
2023-01-31T13:36:31.529Z,99559.72
2023-01-31T13:39:03.836Z,99561.13
2023-01-31T13:41:33.204Z,99567.56
2023-01-31T13:44:01.662Z,99551.91
2023-01-31T13:46:33.966Z,99547.59
2023-01-31T13:49:19.967Z,99548.66
2023-01-31T13:51:52.791Z,99545.41
2023-01-31T13:54:22.470Z,99544.56
2023-01-31T13:56:58.981Z,99541.88
2023-01-31T13:59:29.449Z,99548.81
2023-01-31T14:02:00.130Z,99543.44
2023-01-31T14:04:32.981Z,99537.00
2023-01-31T14:07:10.152Z,99525.66
2023-01-31T14:09:44.549Z,99517.84
2023-01-31T14:12:17.369Z,99511.41
2023-01-31T14:14:55.434Z,99529.00
2023-01-31T14:17:22.122Z,99528.75
2023-01-31T14:19:51.884Z,99525.25
2023-01-31T14:22:34.120Z,99503.06
2023-01-31T14:25:02.398Z,99497.97
2023-01-31T14:27:29.185Z,99495.50
2023-01-31T14:30:10.139Z,99509.84
2023-01-31T14:32:49.792Z,99504.69
2023-01-31T14:35:16.568Z,99502.34
2023-01-31T14:38:07.763Z,99500.22
2023-01-31T14:40:40.550Z,99506.59
2023-01-31T14:43:44.867Z,99520.91
2023-01-31T14:46:21.049Z,99515.72
2023-01-31T14:49:22.008Z,99507.66
2023-01-31T14:52:19.058Z,99507.72
2023-01-31T14:55:23.630Z,99510.16
2023-01-31T14:57:56.038Z,99491.00
2023-01-31T15:00:27.543Z,99494.78
2023-01-31T15:03:24.859Z,99500.16
2023-01-31T15:05:56.745Z,99493.44
2023-01-31T15:08:23.453Z,99494.28
2023-01-31T15:11:35.294Z,99509.84
2023-01-31T15:14:37.793Z,99495.84
2023-01-31T15:17:40.447Z,99504.69
2023-01-31T15:20:18.025Z,99502.50
2023-01-31T15:22:46.778Z,99508.66
2023-01-31T15:25:42.294Z,99509.72
2023-01-31T15:28:15.164Z,99515.09
2023-01-31T15:30:43.139Z,99530.16
2023-01-31T15:33:30.168Z,99527.97
2023-01-31T15:36:15.363Z,99522.00
2023-01-31T15:38:51.310Z,99532.75
2023-01-31T15:41:38.734Z,99544.69
2023-01-31T15:44:15.798Z,99551.44
2023-01-31T15:46:45.325Z,99546.53
2023-01-31T15:49:39.573Z,99547.75
2023-01-31T15:52:19.137Z,99541.56
2023-01-31T15:54:59.329Z,99552.00
2023-01-31T15:57:38.134Z,99553.88
2023-01-31T16:00:05.491Z,99554.19
2023-01-31T16:02:37.765Z,99546.63
2023-01-31T16:05:06.302Z,99541.16
2023-01-31T16:07:33.251Z,99549.22
2023-01-31T16:10:04.456Z,99546.53
2023-01-31T16:12:32.317Z,99536.03
2023-01-31T16:15:06.048Z,99538.97
2023-01-31T16:17:33.202Z,99545.75
2023-01-31T16:20:00.009Z,99543.03
2023-01-31T16:22:30.290Z,99547.84
2023-01-31T16:25:02.524Z,99540.00
2023-01-31T16:27:35.876Z,99548.66
2023-01-31T16:30:03.274Z,99558.03
2023-01-31T16:32:37.555Z,99557.22
2023-01-31T16:35:07.449Z,99562.59
2023-01-31T16:37:37.141Z,99561.78
2023-01-31T16:40:44.836Z,99575.56
2023-01-31T16:43:27.545Z,99577.44
2023-01-31T16:46:04.267Z,99569.38
2023-01-31T16:48:33.510Z,99569.94
2023-01-31T16:51:22.141Z,99576.38
2023-01-31T16:54:20.452Z,99567.25
2023-01-31T16:57:02.591Z,99566.41
2023-01-31T16:59:38.383Z,99565.84
2023-01-31T17:02:08.138Z,99551.25
2023-01-31T17:04:38.753Z,99555.00
2023-01-31T17:07:09.249Z,99571.63
2023-01-31T17:09:36.003Z,99556.34
2023-01-31T17:12:03.540Z,99558.75
2023-01-31T17:14:30.439Z,99557.97
2023-01-31T17:16:57.243Z,99559.81
2023-01-31T17:19:24.089Z,99562.75
2023-01-31T17:21:51.002Z,99565.69
2023-01-31T17:24:22.678Z,99559.72
2023-01-31T17:26:51.026Z,99564.88
2023-01-31T17:29:18.598Z,99554.94
2023-01-31T17:31:45.463Z,99547.91
2023-01-31T17:34:16.011Z,99552.25
2023-01-31T17:36:44.020Z,99558.44
2023-01-31T17:39:10.918Z,99561.94
2023-01-31T17:41:41.104Z,99556.56
2023-01-31T17:44:12.633Z,99555.50
2023-01-31T17:46:39.488Z,99553.38
2023-01-31T17:49:06.211Z,99550.47
2023-01-31T17:51:32.942Z,99543.44
2023-01-31T17:53:59.791Z,99531.88
2023-01-31T17:56:26.559Z,99525.44
2023-01-31T17:58:53.337Z,99519.00
2023-01-31T18:01:20.331Z,99518.41
2023-01-31T18:03:47.207Z,99527.06
2023-01-31T18:06:14.040Z,99525.19
2023-01-31T18:08:40.841Z,99524.38
2023-01-31T18:11:10.466Z,99528.47
2023-01-31T18:13:38.406Z,99528.47
2023-01-31T18:16:14.745Z,99515.81
2023-01-31T18:18:43.921Z,99508.81
2023-01-31T18:21:12.348Z,99514.19
2023-01-31T18:23:39.126Z,99510.69
2023-01-31T18:26:07.192Z,99521.44
2023-01-31T18:28:35.072Z,99536.75
2023-01-31T18:31:10.806Z,99532.44
2023-01-31T18:33:37.940Z,99526.81
2023-01-31T18:36:05.921Z,99529.75
2023-01-31T18:38:33.007Z,99532.22
2023-01-31T18:41:02.809Z,99533.00
2023-01-31T18:43:30.456Z,99533.00
2023-01-31T18:45:57.237Z,99518.50
2023-01-31T18:48:24.299Z,99535.22
2023-01-31T18:50:51.104Z,99527.13
2023-01-31T18:53:17.937Z,99518.28
2023-01-31T18:55:44.663Z,99533.56
2023-01-31T18:58:11.388Z,99525.50
2023-01-31T19:00:38.397Z,99523.09
2023-01-31T19:03:05.209Z,99523.88
2023-01-31T19:05:31.928Z,99512.31
2023-01-31T19:07:58.639Z,99526.81
2023-01-31T19:10:25.400Z,99527.63
2023-01-31T19:12:52.168Z,99531.16
2023-01-31T19:15:19.239Z,99536.75
2023-01-31T19:17:46.067Z,99525.44
2023-01-31T19:20:13.095Z,99526.50
2023-01-31T19:22:39.856Z,99532.94
2023-01-31T19:25:09.169Z,99528.38
2023-01-31T19:27:39.861Z,99520.31
2023-01-31T19:30:07.163Z,99517.63
2023-01-31T19:32:33.972Z,99522.16
2023-01-31T19:35:00.810Z,99534.81
2023-01-31T19:37:28.627Z,99526.50
2023-01-31T19:39:55.360Z,99525.69
2023-01-31T19:42:22.099Z,99515.72
2023-01-31T19:44:48.884Z,99507.44
2023-01-31T19:47:15.800Z,99499.59
2023-01-31T19:49:42.494Z,99506.03
2023-01-31T19:52:09.579Z,99513.31
2023-01-31T19:54:36.579Z,99513.31
2023-01-31T19:57:03.546Z,99518.69
2023-01-31T19:59:30.338Z,99525.69
2023-01-31T20:01:57.209Z,99516.00
2023-01-31T20:04:24.983Z,99511.97
2023-01-31T20:06:51.737Z,99521.13
2023-01-31T20:09:19.941Z,99528.13
2023-01-31T20:11:46.979Z,99529.44
2023-01-31T20:14:13.661Z,99522.75
2023-01-31T20:16:40.478Z,99533.50
2023-01-31T20:19:07.611Z,99526.50
2023-01-31T20:21:34.752Z,99525.91
2023-01-31T20:24:01.780Z,99529.44
2023-01-31T20:26:29.831Z,99534.00
2023-01-31T20:28:57.234Z,99528.59
2023-01-31T20:31:25.119Z,99526.97
2023-01-31T20:33:54.663Z,99524.78
2023-01-31T20:36:25.020Z,99532.03
2023-01-31T20:38:51.838Z,99538.22
2023-01-31T20:41:19.251Z,99529.09
2023-01-31T20:43:46.049Z,99535.53
2023-01-31T20:46:14.932Z,99542.31
2023-01-31T20:48:42.927Z,99545.81
2023-01-31T20:51:09.875Z,99538.78
2023-01-31T20:53:37.498Z,99540.69
2023-01-31T20:56:12.270Z,99533.81
2023-01-31T20:58:41.052Z,99522.50
2023-01-31T21:01:09.323Z,99510.38
2023-01-31T21:03:36.288Z,99521.84
2023-01-31T21:06:04.309Z,99498.13
2023-01-31T21:08:32.035Z,99495.94
2023-01-31T21:11:00.261Z,99497.00
2023-01-31T21:13:28.836Z,99492.44
2023-01-31T21:16:04.336Z,99487.88
2023-01-31T21:18:33.883Z,99485.75
2023-01-31T21:21:08.905Z,99485.19
2023-01-31T21:23:37.050Z,99482.41
2023-01-31T21:26:05.651Z,99479.66
2023-01-31T21:28:32.622Z,99487.72
2023-01-31T21:31:09.775Z,99490.16
2023-01-31T21:33:36.571Z,99495.28
2023-01-31T21:36:08.717Z,99500.91
2023-01-31T21:38:37.304Z,99497.66
2023-01-31T21:41:23.180Z,99501.16
2023-01-31T21:43:50.172Z,99498.47
2023-01-31T21:46:17.139Z,99493.91
2023-01-31T21:48:44.131Z,99505.47
2023-01-31T21:51:13.513Z,99504.19
2023-01-31T21:53:41.430Z,99507.66
2023-01-31T21:56:10.927Z,99497.97
2023-01-31T21:58:38.689Z,99505.81
2023-01-31T22:01:10.022Z,99518.97
2023-01-31T22:03:39.212Z,99511.50
2023-01-31T22:06:08.700Z,99522.81
2023-01-31T22:08:36.872Z,99519.63
2023-01-31T22:11:06.360Z,99529.91
2023-01-31T22:13:33.928Z,99530.75
2023-01-31T22:16:02.645Z,99529.09
2023-01-31T22:18:29.872Z,99526.16
2023-01-31T22:21:14.604Z,99525.94
2023-01-31T22:23:45.663Z,99527.56
2023-01-31T22:26:16.352Z,99524.03
2023-01-31T22:28:43.750Z,99528.63
2023-01-31T22:31:11.358Z,99528.63
2023-01-31T22:33:40.817Z,99524.31
2023-01-31T22:36:09.173Z,99514.91
2023-01-31T22:38:36.659Z,99515.97
2023-01-31T22:41:05.998Z,99512.72
2023-01-31T22:43:37.411Z,99514.59
2023-01-31T22:46:04.634Z,99513.28
2023-01-31T22:48:31.664Z,99508.97
2023-01-31T22:51:00.607Z,99512.72
2023-01-31T22:53:30.702Z,99507.91
2023-01-31T22:56:11.719Z,99504.44
2023-01-31T22:58:38.510Z,99497.16
2023-01-31T23:01:20.699Z,99488.31
2023-01-31T23:03:48.504Z,99475.66
2023-01-31T23:06:16.601Z,99467.59
2023-01-31T23:08:44.158Z,99481.03
2023-01-31T23:11:13.410Z,99473.47
2023-01-31T23:13:40.921Z,99465.88
2023-01-31T23:16:08.829Z,99463.19
2023-01-31T23:18:36.297Z,99468.00
2023-01-31T23:21:14.693Z,99448.63
2023-01-31T23:23:42.883Z,99455.06
2023-01-31T23:26:10.589Z,99459.06
2023-01-31T23:28:37.833Z,99463.59
2023-01-31T23:31:04.797Z,99463.28
2023-01-31T23:33:31.560Z,99457.91
2023-01-31T23:35:58.276Z,99455.94
2023-01-31T23:38:25.699Z,99453.25
2023-01-31T23:40:53.788Z,99448.47
2023-01-31T23:43:21.798Z,99449.03
2023-01-31T23:45:49.363Z,99442.59
2023-01-31T23:48:16.238Z,99450.16
2023-01-31T23:50:43.156Z,99447.81
2023-01-31T23:53:10.096Z,99440.56
2023-01-31T23:55:37.132Z,99440.31
2023-01-31T23:58:04.162Z,99446.28
